Time;durP1;ratioP1;P1;durP2;ratioP2;P2;SDS_P1;SDS_P2;PMS_P1;PMS_P2;Temp;Humidity;BMP_temperature;BMP_pressure;BME280_temperature;BME280_humidity;BME280_pressure;Samples;Min_cycle;Max_cycle;Signal;HPM_P1;HPM_P2
2022/03/26 04:00:37;;;;;;;2.80;2.70;;;11.00;52.60;;;;;;5977140;23;20393;31
2022/03/26 04:03:03;;;;;;;3.30;3.10;;;11.00;52.70;;;;;;4862573;29;20494;-74
2022/03/26 04:05:30;;;;;;;2.90;2.70;;;10.90;52.70;;;;;;4863572;29;20861;-74
2022/03/26 04:07:57;;;;;;;2.87;2.77;;;10.90;52.90;;;;;;4863691;29;20469;-74
2022/03/26 04:10:23;;;;;;;2.70;2.60;;;10.90;52.90;;;;;;4863697;29;20562;-74
2022/03/26 04:12:50;;;;;;;2.50;2.40;;;10.90;53.10;;;;;;4881825;29;20873;-74
2022/03/26 04:15:17;;;;;;;3.30;3.20;;;10.90;52.90;;;;;;5006829;23;22248;-74
2022/03/26 04:17:45;;;;;;;2.93;2.83;;;10.80;53.30;;;;;;4957991;29;20463;-74
2022/03/26 04:20:12;;;;;;;2.80;2.70;;;10.80;53.40;;;;;;4957838;29;20486;-74
2022/03/26 04:22:40;;;;;;;2.80;2.70;;;10.80;53.10;;;;;;4957830;29;20501;-74
2022/03/26 04:25:08;;;;;;;3.33;3.13;;;10.70;53.40;;;;;;4957701;29;20545;-74
2022/03/26 04:27:35;;;;;;;3.13;2.93;;;10.60;53.60;;;;;;4957807;28;20505;-74
2022/03/26 04:30:01;;;;;;;2.87;2.77;;;10.60;53.90;;;;;;4957698;29;20451;-74
2022/03/26 04:32:29;;;;;;;2.90;2.80;;;10.60;53.90;;;;;;4956373;28;20447;-74
2022/03/26 04:34:58;;;;;;;2.70;2.60;;;10.60;53.80;;;;;;4957545;29;20455;-74
2022/03/26 04:37:25;;;;;;;3.00;2.87;;;10.60;53.90;;;;;;4957551;29;20458;-75
2022/03/26 04:39:51;;;;;;;2.67;2.57;;;10.60;53.90;;;;;;4957502;29;20514;-74
2022/03/26 04:42:18;;;;;;;2.87;2.77;;;10.60;54.00;;;;;;4957453;29;20450;-74
2022/03/26 04:44:45;;;;;;;2.83;2.73;;;10.60;54.00;;;;;;4957366;29;20455;-74
2022/03/26 04:47:11;;;;;;;3.17;2.97;;;10.60;53.90;;;;;;4957387;29;20451;-74
2022/03/26 04:49:38;;;;;;;2.53;2.43;;;10.60;53.60;;;;;;4957368;29;20522;-74
2022/03/26 04:52:07;;;;;;;2.73;2.63;;;10.60;53.40;;;;;;4957367;28;20541;-74
2022/03/26 04:54:33;;;;;;;2.60;2.50;;;10.60;53.00;;;;;;4956971;29;20935;-74
2022/03/26 04:57:00;;;;;;;3.00;2.90;;;10.50;53.50;;;;;;4957126;29;20462;-74
2022/03/26 04:59:27;;;;;;;2.70;2.60;;;10.50;53.70;;;;;;4957112;29;20491;-75
2022/03/26 05:01:53;;;;;;;2.67;2.57;;;10.50;53.80;;;;;;4957151;29;20521;-75
2022/03/26 05:04:20;;;;;;;2.93;2.80;;;10.50;53.80;;;;;;4956782;29;20479;-74
2022/03/26 05:06:46;;;;;;;3.00;2.90;;;10.50;53.70;;;;;;4956984;29;20506;-74
2022/03/26 05:09:14;;;;;;;2.80;2.70;;;10.50;53.70;;;;;;4957012;29;20447;-74
2022/03/26 05:11:42;;;;;;;2.70;2.60;;;10.30;53.70;;;;;;4956950;29;20509;-74
2022/03/26 05:14:09;;;;;;;2.37;2.27;;;10.30;54.10;;;;;;4956558;29;20485;-74
2022/03/26 05:16:35;;;;;;;3.00;2.90;;;10.30;54.00;;;;;;4956427;29;20915;-74
2022/03/26 05:19:03;;;;;;;2.83;2.73;;;10.30;54.00;;;;;;4956761;28;20624;-74
2022/03/26 05:21:29;;;;;;;2.70;2.60;;;10.30;53.90;;;;;;4956740;29;20447;-74
2022/03/26 05:23:56;;;;;;;2.73;2.63;;;10.30;54.00;;;;;;4956389;29;20455;-74
2022/03/26 05:26:24;;;;;;;2.80;2.70;;;10.30;53.70;;;;;;4956678;29;20483;-74
2022/03/26 05:28:51;;;;;;;2.70;2.60;;;10.30;53.70;;;;;;4956655;29;20455;-74
2022/03/26 05:31:18;;;;;;;2.83;2.73;;;10.40;53.80;;;;;;4956534;29;20451;-74
2022/03/26 05:33:45;;;;;;;2.80;2.70;;;10.40;53.50;;;;;;4956576;29;20497;-74
2022/03/26 05:36:11;;;;;;;2.73;2.63;;;10.50;53.40;;;;;;4956382;29;20475;-74
2022/03/26 05:38:38;;;;;;;3.03;2.93;;;10.60;53.40;;;;;;4956445;29;20541;-74
2022/03/26 05:41:05;;;;;;;2.87;2.77;;;10.80;53.00;;;;;;4956256;29;20512;-74
2022/03/26 05:43:33;;;;;;;2.87;2.67;;;11.00;52.90;;;;;;4956027;28;20538;-74
2022/03/26 05:45:59;;;;;;;2.87;2.70;;;11.20;52.10;;;;;;4956223;29;20498;-74
2022/03/26 05:48:26;;;;;;;2.50;2.40;;;11.40;51.70;;;;;;4956311;29;20868;-74
2022/03/26 05:50:53;;;;;;;2.70;2.60;;;11.60;51.30;;;;;;4955948;29;20943;-74
2022/03/26 05:53:19;;;;;;;2.77;2.67;;;11.80;51.20;;;;;;4955870;29;20950;-75
2022/03/26 05:55:46;;;;;;;2.90;2.70;;;12.20;50.40;;;;;;4956134;29;20530;-75
2022/03/26 05:58:13;;;;;;;2.53;2.33;;;12.70;49.40;;;;;;4956102;29;20512;-74
2022/03/26 06:00:41;;;;;;;2.53;2.43;;;13.30;48.30;;;;;;4956554;29;20541;-76
2022/03/26 06:03:08;;;;;;;2.90;2.70;;;13.80;47.30;;;;;;4957482;29;20451;-75
2022/03/26 06:05:34;;;;;;;2.70;2.60;;;14.40;46.30;;;;;;4956160;29;20478;-75
2022/03/26 06:08:01;;;;;;;2.50;2.40;;;15.00;45.40;;;;;;4955648;29;21012;-74
2022/03/26 06:10:28;;;;;;;3.20;3.00;;;15.60;44.30;;;;;;4955614;29;20918;-75
2022/03/26 06:12:55;;;;;;;3.13;3.03;;;16.20;43.20;;;;;;4955565;29;20458;-74
2022/03/26 06:15:23;;;;;;;2.90;2.80;;;16.90;42.00;;;;;;4955529;29;20479;-75
2022/03/26 06:17:51;;;;;;;2.60;2.50;;;17.50;41.10;;;;;;4955809;29;20494;-74
2022/03/26 06:20:17;;;;;;;2.90;2.80;;;18.10;40.30;;;;;;4955711;29;20542;-75
2022/03/26 06:22:45;;;;;;;2.63;2.53;;;18.70;39.30;;;;;;4955678;29;20443;-75
2022/03/26 06:25:11;;;;;;;2.90;2.80;;;19.30;38.30;;;;;;4955573;29;20521;-74
2022/03/26 06:27:38;;;;;;;2.60;2.50;;;19.80;37.30;;;;;;4955596;29;20446;-75
2022/03/26 06:30:06;;;;;;;2.67;2.57;;;20.40;37.00;;;;;;4955597;29;20819;-75
2022/03/26 06:32:33;;;;;;;2.73;2.63;;;21.00;36.00;;;;;;4955534;28;20482;-76
2022/03/26 06:35:01;;;;;;;3.13;3.03;;;21.60;35.70;;;;;;4955099;29;20965;-76
2022/03/26 06:37:27;;;;;;;2.93;2.83;;;22.20;34.50;;;;;;4955464;29;20505;-75
2022/03/26 06:39:54;;;;;;;2.90;2.70;;;22.70;34.00;;;;;;4955252;29;20533;-75
2022/03/26 06:42:20;;;;;;;2.93;2.73;;;22.90;33.50;;;;;;4955424;29;20447;-75
2022/03/26 06:44:47;;;;;;;3.17;2.97;;;23.30;33.10;;;;;;4955331;29;20455;-76
2022/03/26 06:47:14;;;;;;;2.80;2.70;;;23.70;32.50;;;;;;4955351;29;20868;-75
2022/03/26 06:49:41;;;;;;;2.80;2.70;;;23.90;32.40;;;;;;4955351;29;20474;-75
2022/03/26 06:52:11;;;;;;;2.67;2.57;;;24.30;32.00;;;;;;4955415;29;20486;-75
2022/03/26 06:54:37;;;;;;;2.60;2.50;;;24.80;31.30;;;;;;4954564;29;20509;-75
2022/03/26 06:57:05;;;;;;;2.93;2.83;;;25.30;30.30;;;;;;4955262;29;20502;-75
2022/03/26 06:59:31;;;;;;;3.20;3.03;;;25.90;29.80;;;;;;4955222;28;20993;-76
2022/03/26 07:01:58;;;;;;;2.90;2.73;;;26.40;29.20;;;;;;4955284;29;20451;-75
2022/03/26 07:04:25;;;;;;;2.70;2.60;;;26.90;29.10;;;;;;4955218;29;20447;-76
2022/03/26 07:06:51;;;;;;;2.47;2.37;;;27.30;28.40;;;;;;4955124;28;20534;-75
2022/03/26 07:09:19;;;;;;;2.57;2.47;;;27.70;28.20;;;;;;4955523;29;21030;-76
2022/03/26 07:11:46;;;;;;;2.40;2.30;;;27.70;27.20;;;;;;4956364;29;21058;-76
2022/03/26 07:14:13;;;;;;;2.93;2.73;;;27.60;27.70;;;;;;4957754;29;20482;-76
2022/03/26 07:16:39;;;;;;;3.27;3.17;;;27.90;27.80;;;;;;4957354;28;20494;-76
2022/03/26 07:19:06;;;;;;;2.57;2.47;;;28.10;27.40;;;;;;4956556;29;20951;-75
2022/03/26 07:21:33;;;;;;;2.50;2.40;;;27.80;27.30;;;;;;4954975;29;20482;-76
2022/03/26 07:23:59;;;;;;;2.40;2.30;;;27.30;27.80;;;;;;4955038;29;20498;-76
2022/03/26 07:26:27;;;;;;;2.80;2.70;;;26.20;29.10;;;;;;4954982;29;20558;-76
2022/03/26 07:28:55;;;;;;;3.00;2.90;;;25.30;29.30;;;;;;4954968;29;20452;-75
2022/03/26 07:31:22;;;;;;;3.10;2.90;;;24.40;30.40;;;;;;4955026;29;20454;-75
2022/03/26 07:33:48;;;;;;;2.57;2.47;;;23.50;31.50;;;;;;4954918;29;20451;-75
2022/03/26 07:36:15;;;;;;;3.00;2.80;;;22.60;32.80;;;;;;4954881;29;20888;-75
2022/03/26 07:38:42;;;;;;;2.70;2.60;;;21.90;34.00;;;;;;4954909;29;20506;-74
2022/03/26 07:41:09;;;;;;;2.80;2.70;;;21.00;34.80;;;;;;4954523;29;21006;-75
2022/03/26 07:43:37;;;;;;;2.70;2.60;;;20.30;35.70;;;;;;4954592;29;20833;-75
2022/03/26 07:46:04;;;;;;;3.00;2.80;;;19.80;36.20;;;;;;4954958;29;20475;-75
2022/03/26 07:48:30;;;;;;;2.70;2.60;;;19.30;37.10;;;;;;4954854;29;20450;-75
2022/03/26 07:50:57;;;;;;;3.20;3.10;;;19.00;38.00;;;;;;4954823;29;20469;-74
2022/03/26 07:53:25;;;;;;;3.20;3.00;;;18.70;38.40;;;;;;4954847;29;20566;-74
2022/03/26 07:55:52;;;;;;;2.70;2.60;;;18.30;38.80;;;;;;4954730;29;20475;-75
2022/03/26 07:58:19;;;;;;;2.70;2.60;;;18.00;39.90;;;;;;4954792;29;20451;-75
2022/03/26 08:00:48;;;;;;;2.97;2.87;;;18.00;39.60;;;;;;4954645;29;20539;-75
2022/03/26 08:03:15;;;;;;;2.97;2.77;;;17.80;40.40;;;;;;4954820;29;20455;-75
2022/03/26 08:05:41;;;;;;;2.60;2.50;;;17.90;40.80;;;;;;4954972;28;20467;-75
2022/03/26 08:08:09;;;;;;;2.80;2.60;;;18.00;40.90;;;;;;4958197;29;20459;-75
2022/03/26 08:10:35;;;;;;;2.77;2.67;;;18.00;40.90;;;;;;4957815;28;20943;-75
2022/03/26 08:13:02;;;;;;;3.00;2.90;;;17.80;40.70;;;;;;4958091;29;20451;-75
2022/03/26 08:15:29;;;;;;;2.60;2.50;;;17.80;41.40;;;;;;4957814;29;20514;-75
2022/03/26 08:17:58;;;;;;;2.90;2.70;;;17.90;41.50;;;;;;4958212;29;20491;-75
2022/03/26 08:20:26;;;;;;;2.93;2.73;;;18.00;41.60;;;;;;4958046;29;20499;-75
2022/03/26 08:22:53;;;;;;;3.10;2.90;;;18.20;40.20;;;;;;4957932;28;20458;-75
2022/03/26 08:28:05;;;;;;;2.80;2.70;;;18.20;41.20;;;;;;4957327;29;20497;-76
2022/03/26 08:30:32;;;;;;;2.80;2.70;;;17.90;41.00;;;;;;4957745;29;20428;-76
2022/03/26 08:33:02;;;;;;;3.07;2.97;;;17.60;39.90;;;;;;4957681;29;20509;-76
2022/03/26 08:35:31;;;;;;;3.17;3.07;;;17.70;41.00;;;;;;4957345;29;21021;-75
2022/03/26 08:37:58;;;;;;;3.33;3.13;;;17.40;40.50;;;;;;4957640;29;20442;-77
2022/03/26 08:40:25;;;;;;;2.83;2.73;;;17.10;41.70;;;;;;4957627;29;20479;-77
2022/03/26 08:42:52;;;;;;;3.63;3.43;;;17.50;41.40;;;;;;4957226;29;21002;-77
2022/03/26 08:45:19;;;;;;;3.10;3.00;;;17.80;41.30;;;;;;4957483;29;20550;-77
2022/03/26 08:47:45;;;;;;;3.10;3.00;;;17.50;40.60;;;;;;4957210;29;20947;-77
2022/03/26 08:50:13;;;;;;;3.00;2.90;;;17.60;40.70;;;;;;4957386;29;20439;-77
2022/03/26 08:52:40;;;;;;;3.00;2.90;;;17.70;41.60;;;;;;4957306;29;20451;-77
2022/03/26 08:55:08;;;;;;;2.90;2.80;;;18.00;41.10;;;;;;4957204;29;20470;-78
2022/03/26 08:57:35;;;;;;;3.00;2.90;;;18.20;40.90;;;;;;4957295;28;20455;-76
2022/03/26 09:00:01;;;;;;;3.23;3.03;;;18.60;40.60;;;;;;4956816;29;20857;-77
2022/03/26 09:02:28;;;;;;;3.00;2.80;;;18.80;40.60;;;;;;4957170;29;20447;-76
2022/03/26 09:04:56;;;;;;;3.30;3.10;;;18.40;40.20;;;;;;4957088;29;20443;-77
2022/03/26 09:07:24;;;;;;;3.37;3.17;;;18.40;39.90;;;;;;4956808;29;20875;-77
2022/03/26 09:09:50;;;;;;;3.33;3.13;;;18.30;41.10;;;;;;4957277;29;21009;-82
2022/03/26 09:12:17;;;;;;;3.27;3.17;;;18.30;40.70;;;;;;4958339;29;20572;-78
2022/03/26 09:14:44;;;;;;;2.83;2.67;;;17.90;40.40;;;;;;4956961;29;20443;-78
2022/03/26 09:17:10;;;;;;;3.00;2.90;;;17.60;42.20;;;;;;4956285;28;20577;-69
2022/03/26 09:19:37;;;;;;;3.17;2.73;;;17.60;44.50;;;;;;4956620;29;20456;-72
2022/03/26 09:22:04;;;;;;;3.40;3.20;;;17.50;44.20;;;;;;4956453;29;20994;-72
2022/03/26 09:24:32;;;;;;;3.00;2.90;;;17.40;41.60;;;;;;4956427;29;20947;-73
2022/03/26 09:26:59;;;;;;;3.57;3.37;;;17.00;41.50;;;;;;4956329;29;20825;-71
2022/03/26 09:29:25;;;;;;;3.03;2.93;;;17.00;41.90;;;;;;4956658;29;20510;-72
2022/03/26 09:31:52;;;;;;;3.23;3.03;;;16.80;42.10;;;;;;4956614;29;20447;-71
2022/03/26 09:34:19;;;;;;;3.07;2.97;;;16.50;42.00;;;;;;4956547;29;20458;-72
2022/03/26 09:36:45;;;;;;;3.17;2.97;;;16.30;42.20;;;;;;4957334;29;20521;-69
2022/03/26 09:39:12;;;;;;;3.00;2.90;;;16.10;42.60;;;;;;4956186;29;21001;-72
2022/03/26 09:41:41;;;;;;;3.10;3.00;;;16.10;43.00;;;;;;4956349;29;20529;-72
2022/03/26 09:44:07;;;;;;;3.27;3.17;;;16.10;43.20;;;;;;4956421;29;20446;-73
2022/03/26 09:46:35;;;;;;;3.30;3.20;;;16.20;43.70;;;;;;4956016;29;20953;-73
2022/03/26 09:49:03;;;;;;;3.33;3.23;;;16.50;44.20;;;;;;4956250;29;20604;-73
2022/03/26 09:51:30;;;;;;;3.03;2.83;;;16.70;42.90;;;;;;4956208;29;20451;-72
2022/03/26 09:53:57;;;;;;;3.60;3.40;;;16.60;43.30;;;;;;4955864;29;20954;-73
2022/03/26 09:56:25;;;;;;;2.97;2.87;;;16.70;43.50;;;;;;4956055;29;20471;-73
2022/03/26 09:58:54;;;;;;;3.50;3.40;;;17.10;44.80;;;;;;4956329;29;20455;-73
2022/03/26 10:01:20;;;;;;;3.17;3.00;;;17.00;43.30;;;;;;4956084;29;20554;-73
2022/03/26 10:04:09;;;;;;;3.23;3.13;;;17.20;42.60;;;;;;4956097;29;20483;-73
2022/03/26 10:06:35;;;;;;;3.20;3.00;;;17.60;43.50;;;;;;4956129;28;20526;-73
2022/03/26 10:09:02;;;;;;;3.17;3.07;;;17.80;43.10;;;;;;4956027;29;20446;-73
2022/03/26 10:11:32;;;;;;;2.83;2.73;;;17.90;42.10;;;;;;4956003;29;20446;-73
2022/03/26 10:14:00;;;;;;;3.30;3.10;;;18.10;43.60;;;;;;4956473;29;20530;-73
2022/03/26 10:16:28;;;;;;;3.03;2.83;;;18.20;42.20;;;;;;4957067;29;20619;-74
2022/03/26 10:18:58;;;;;;;3.00;2.90;;;18.40;42.30;;;;;;4955925;29;20442;-75
2022/03/26 10:21:27;;;;;;;3.00;2.90;;;18.60;41.00;;;;;;4955930;29;20463;-76
2022/03/26 10:23:55;;;;;;;3.07;2.87;;;18.50;41.50;;;;;;4955778;29;20506;-76
2022/03/26 10:26:23;;;;;;;3.17;2.97;;;18.40;40.30;;;;;;4956055;29;20478;-77
2022/03/26 10:28:52;;;;;;;3.60;3.40;;;18.00;42.30;;;;;;4956339;28;20523;-81
2022/03/26 10:34:10;;;;;;;3.37;3.17;;;18.30;41.20;;;;;;4956023;29;20418;-75
2022/03/26 10:36:38;;;;;;;2.70;2.60;;;18.40;40.70;;;;;;4956109;29;20478;-77
2022/03/26 10:39:06;;;;;;;3.10;3.00;;;18.10;40.40;;;;;;4956234;28;20447;-74
2022/03/26 10:41:34;;;;;;;2.77;2.67;;;18.00;40.70;;;;;;4956017;28;20482;-76
2022/03/26 10:44:09;;;;;;;3.40;3.20;;;17.90;41.50;;;;;;4955646;28;20454;-79
2022/03/26 10:46:45;;;;;;;2.73;2.63;;;17.90;40.90;;;;;;4955905;29;20471;-79
2022/03/26 10:49:13;;;;;;;3.00;2.90;;;17.90;41.30;;;;;;4956726;29;20445;-78
2022/03/26 10:51:41;;;;;;;3.40;3.30;;;17.70;41.30;;;;;;4956624;29;20831;-78
2022/03/26 10:54:12;;;;;;;3.00;2.90;;;17.60;41.40;;;;;;4955558;29;20487;-76
2022/03/26 10:56:40;;;;;;;3.00;2.87;;;17.90;42.60;;;;;;4955358;29;20496;-76
2022/03/26 10:59:08;;;;;;;3.77;3.57;;;18.10;41.60;;;;;;4955414;28;20454;-76
2022/03/26 11:01:35;;;;;;;3.00;2.90;;;18.00;41.30;;;;;;4956018;28;20526;-77
2022/03/26 11:04:04;;;;;;;3.43;3.30;;;18.20;41.30;;;;;;4960153;29;20459;-76
2022/03/26 11:06:38;;;;;;;2.80;2.70;;;18.10;40.70;;;;;;4963660;29;20475;-76
2022/03/26 11:09:05;;;;;;;3.20;3.10;;;17.90;40.70;;;;;;4961462;29;20442;-77
2022/03/26 11:11:32;;;;;;;3.43;3.33;;;18.20;41.50;;;;;;4957867;29;20978;-77
2022/03/26 11:14:03;;;;;;;2.70;2.60;;;18.10;40.90;;;;;;4955398;29;20583;-74
2022/03/26 11:16:42;;;;;;;3.17;3.07;;;18.10;40.10;;;;;;4954792;29;20491;-74
2022/03/26 11:19:21;;;;;;;3.50;2.90;;;18.40;40.50;;;;;;4955171;29;20837;-74
2022/03/26 11:22:04;;;;;;;3.20;3.00;;;18.80;41.20;;;;;;4955355;29;20475;-74
2022/03/26 11:25:00;;;;;;;2.90;2.80;;;18.80;39.50;;;;;;4955098;29;20435;-75
2022/03/26 11:27:44;;;;;;;3.33;3.23;;;18.90;40.20;;;;;;4929599;28;20443;-75
2022/03/26 11:30:16;;;;;;;2.80;2.70;;;19.00;39.40;;;;;;4954872;29;20462;-74
2022/03/26 11:32:45;;;;;;;3.23;3.13;;;19.30;38.60;;;;;;4955275;28;20435;-74
2022/03/26 11:35:15;;;;;;;3.10;2.90;;;19.60;38.30;;;;;;4954740;29;20494;-75
2022/03/26 11:37:52;;;;;;;2.90;2.70;;;19.80;37.70;;;;;;4954827;29;20946;-74
2022/03/26 11:40:44;;;;;;;3.10;3.00;;;19.60;36.10;;;;;;4955150;28;20462;-74
2022/03/26 11:43:11;;;;;;;2.77;2.67;;;19.40;37.30;;;;;;4944255;28;20514;-75
2022/03/26 11:51:28;;;;;;;2.93;2.83;;;19.90;36.70;;;;;;4919799;29;20811;-78
2022/03/26 11:53:59;;;;;;;2.73;2.63;;;20.10;36.90;;;;;;4941970;28;20510;-77
2022/03/26 11:56:28;;;;;;;2.50;2.40;;;20.30;35.20;;;;;;4958520;29;20489;-76
2022/03/26 11:59:23;;;;;;;3.07;2.87;;;20.70;35.10;;;;;;4958174;29;20851;-72
2022/03/26 12:01:50;;;;;;;2.47;2.37;;;20.80;34.90;;;;;;4958770;29;20471;-75
2022/03/26 12:04:19;;;;;;;2.80;2.70;;;21.00;35.70;;;;;;4961174;29;20467;-73
2022/03/26 12:06:50;;;;;;;2.50;2.40;;;21.30;34.40;;;;;;4961430;29;20482;-73
2022/03/26 12:09:31;;;;;;;2.83;2.73;;;21.60;34.00;;;;;;4960872;29;20461;-73
2022/03/26 12:12:15;;;;;;;2.67;2.57;;;21.70;33.70;;;;;;4960584;29;20978;-73
2022/03/26 12:15:15;;;;;;;3.07;2.97;;;21.80;34.20;;;;;;4961287;29;20467;-73
2022/03/26 12:17:43;;;;;;;2.97;2.87;;;21.60;33.50;;;;;;4960355;29;20450;-73
2022/03/26 12:20:19;;;;;;;2.30;2.20;;;21.70;33.60;;;;;;4961075;29;20454;-73
2022/03/26 12:22:53;;;;;;;2.67;2.47;;;21.90;33.00;;;;;;4960423;29;20466;-73
2022/03/26 12:25:37;;;;;;;2.67;2.47;;;22.10;33.10;;;;;;4960703;29;20478;-74
2022/03/26 12:28:04;;;;;;;2.30;2.20;;;22.20;32.50;;;;;;4960712;29;20419;-73
2022/03/26 12:30:31;;;;;;;2.30;2.20;;;22.00;31.90;;;;;;4958934;29;20458;-74
2022/03/26 12:33:00;;;;;;;2.60;2.50;;;22.00;32.40;;;;;;4958902;29;20451;-73
2022/03/26 12:35:29;;;;;;;2.80;2.70;;;22.30;33.00;;;;;;4957895;29;20474;-72
2022/03/26 12:37:57;;;;;;;2.60;2.50;;;22.20;33.20;;;;;;4958074;29;20868;-72
2022/03/26 12:40:24;;;;;;;2.30;2.20;;;21.90;32.10;;;;;;4958665;29;20447;-73
2022/03/26 12:42:55;;;;;;;2.33;2.23;;;21.60;32.40;;;;;;4958819;29;20478;-74
2022/03/26 12:45:22;;;;;;;2.40;2.30;;;21.30;32.70;;;;;;4959308;29;20529;-72
2022/03/26 12:47:49;;;;;;;2.80;2.60;;;21.20;33.20;;;;;;4959295;29;20447;-72
2022/03/26 12:50:19;;;;;;;2.43;2.33;;;21.20;32.40;;;;;;4958132;29;20973;-72
2022/03/26 12:52:46;;;;;;;2.00;1.90;;;21.10;32.60;;;;;;4957397;28;20535;-73
2022/03/26 12:55:16;;;;;;;2.80;2.70;;;21.40;33.80;;;;;;4958211;28;20533;-72
2022/03/26 13:00:30;;;;;;;2.53;2.43;;;21.80;32.70;;;;;;4957716;29;20426;-73
2022/03/26 13:03:07;;;;;;;2.20;2.10;;;21.50;32.80;;;;;;4957576;29;20479;-75
2022/03/26 13:05:36;;;;;;;2.93;2.80;;;21.40;33.30;;;;;;4957581;29;20470;-74
2022/03/26 13:08:04;;;;;;;2.43;2.33;;;21.20;32.60;;;;;;4957860;29;20464;-72
2022/03/26 13:10:33;;;;;;;2.13;2.03;;;21.40;33.10;;;;;;4957206;29;20454;-70
2022/03/26 13:13:00;;;;;;;2.17;2.07;;;21.50;32.60;;;;;;4957146;29;20443;-71
2022/03/26 13:15:27;;;;;;;2.50;2.40;;;21.50;31.90;;;;;;4956769;28;20498;-71
2022/03/26 13:17:57;;;;;;;2.30;2.20;;;21.40;31.50;;;;;;4956743;29;20915;-70
2022/03/26 13:20:26;;;;;;;2.10;2.00;;;21.50;30.80;;;;;;4956971;29;20443;-70
2022/03/26 13:22:56;;;;;;;1.77;1.67;;;21.60;32.00;;;;;;4956578;29;20496;-71
2022/03/26 13:25:23;;;;;;;2.17;2.07;;;21.50;31.50;;;;;;4956827;29;20488;-71
2022/03/26 13:27:51;;;;;;;2.17;2.07;;;21.40;30.60;;;;;;4957589;29;20459;-71
2022/03/26 13:30:18;;;;;;;1.97;1.87;;;21.50;31.60;;;;;;4956742;29;20463;-71
2022/03/26 13:32:45;;;;;;;2.00;1.90;;;21.80;30.40;;;;;;4956598;28;21001;-69
2022/03/26 13:35:16;;;;;;;2.13;2.03;;;22.10;30.80;;;;;;4956508;29;21046;-69
2022/03/26 13:37:47;;;;;;;2.00;1.90;;;22.30;30.70;;;;;;4956843;28;20483;-70
2022/03/26 13:40:15;;;;;;;2.00;1.90;;;22.30;29.40;;;;;;4956802;28;20903;-70
2022/03/26 13:42:43;;;;;;;2.20;2.00;;;22.30;30.70;;;;;;4956580;28;20526;-69
2022/03/26 13:45:11;;;;;;;1.90;1.80;;;22.30;28.80;;;;;;4956520;29;20467;-70
2022/03/26 13:47:39;;;;;;;1.63;1.53;;;22.30;29.70;;;;;;4956540;28;20535;-70
2022/03/26 13:50:07;;;;;;;1.70;1.60;;;22.20;29.60;;;;;;4957202;29;20462;-70
2022/03/26 13:52:36;;;;;;;1.97;1.87;;;22.70;29.40;;;;;;4956828;29;20446;-70
2022/03/26 13:55:29;;;;;;;1.80;1.70;;;22.70;29.20;;;;;;4956359;29;20574;-70
2022/03/26 13:57:58;;;;;;;1.80;1.70;;;22.40;30.50;;;;;;4956122;29;20439;-71
2022/03/26 14:00:28;;;;;;;1.97;1.87;;;22.40;29.00;;;;;;4956559;28;20455;-74
2022/03/26 14:02:56;;;;;;;1.70;1.60;;;22.50;29.30;;;;;;4957018;29;20570;-73
2022/03/26 14:05:26;;;;;;;1.70;1.60;;;22.70;29.00;;;;;;4955802;28;20864;-73
2022/03/26 14:07:54;;;;;;;1.57;1.47;;;22.60;29.00;;;;;;4956045;29;20865;-73
2022/03/26 14:10:31;;;;;;;1.83;1.73;;;22.60;28.70;;;;;;4955985;29;20498;-73
2022/03/26 14:12:59;;;;;;;1.93;1.83;;;22.50;28.50;;;;;;4956022;28;20514;-73
2022/03/26 14:15:28;;;;;;;2.00;1.90;;;22.70;28.80;;;;;;4955571;29;20491;-73
2022/03/26 14:17:54;;;;;;;1.93;1.83;;;22.80;28.60;;;;;;4955855;29;20859;-72
2022/03/26 14:20:21;;;;;;;1.60;1.50;;;22.90;28.90;;;;;;4955512;29;20451;-73
2022/03/26 14:22:48;;;;;;;1.70;1.60;;;23.30;28.90;;;;;;4955957;29;20529;-71
2022/03/26 14:25:15;;;;;;;1.70;1.60;;;23.80;30.70;;;;;;4955690;29;20497;-71
2022/03/26 14:27:42;;;;;;;1.60;1.50;;;24.60;27.60;;;;;;4955714;29;20542;-71
2022/03/26 14:30:09;;;;;;;2.03;1.87;;;25.40;27.60;;;;;;4955827;29;20497;-73
2022/03/26 14:32:37;;;;;;;1.40;1.30;;;26.90;26.60;;;;;;4955778;29;20447;-73
2022/03/26 14:35:04;;;;;;;1.60;1.50;;;28.50;25.00;;;;;;4955676;29;20530;-73
2022/03/26 14:37:31;;;;;;;1.60;1.50;;;29.50;23.00;;;;;;4955799;29;20458;-72
2022/03/26 14:39:57;;;;;;;1.70;1.60;;;29.70;23.80;;;;;;4955672;28;20506;-73
2022/03/26 14:42:24;;;;;;;1.50;1.40;;;30.40;22.60;;;;;;4955602;29;20478;-72
2022/03/26 14:44:51;;;;;;;1.50;1.40;;;31.00;22.70;;;;;;4955572;29;20506;-74
2022/03/26 14:47:17;;;;;;;1.63;1.53;;;31.20;22.20;;;;;;4955619;29;20505;-74
2022/03/26 14:49:45;;;;;;;1.80;1.70;;;31.60;21.80;;;;;;4955494;29;20525;-74
2022/03/26 14:52:12;;;;;;;1.70;1.60;;;32.00;21.70;;;;;;4955486;29;20447;-74
2022/03/26 14:54:39;;;;;;;1.80;1.70;;;32.40;20.70;;;;;;4955151;29;20830;-75
2022/03/26 14:57:06;;;;;;;1.60;1.50;;;32.50;21.30;;;;;;4955380;29;20893;-75
2022/03/26 14:59:32;;;;;;;1.63;1.53;;;33.00;21.00;;;;;;4955042;29;20848;-75
2022/03/26 15:01:59;;;;;;;1.37;1.27;;;33.10;20.70;;;;;;4955344;29;20460;-75
2022/03/26 15:04:26;;;;;;;2.00;1.90;;;33.00;21.00;;;;;;4954975;29;20857;-74
2022/03/26 15:06:54;;;;;;;1.40;1.30;;;33.00;21.20;;;;;;4955190;29;20474;-75
2022/03/26 15:09:20;;;;;;;1.87;1.77;;;33.30;21.30;;;;;;4955214;29;20455;-74
2022/03/26 15:11:47;;;;;;;1.90;1.80;;;33.30;20.70;;;;;;4955331;29;20447;-74
2022/03/26 15:14:14;;;;;;;1.60;1.50;;;33.10;20.90;;;;;;4955258;29;20451;-75
2022/03/26 15:16:40;;;;;;;1.70;1.60;;;33.20;21.00;;;;;;4956784;28;21012;-73
2022/03/26 15:19:07;;;;;;;1.43;1.33;;;33.20;21.50;;;;;;4958811;29;20808;-75
2022/03/26 15:21:34;;;;;;;1.83;1.37;;;32.80;21.20;;;;;;4958839;29;20837;-76
2022/03/26 15:24:02;;;;;;;1.73;1.63;;;32.80;21.30;;;;;;4959583;29;20478;-75
2022/03/26 15:26:29;;;;;;;1.40;1.30;;;32.70;21.00;;;;;;4963230;29;20478;-76
2022/03/26 15:28:56;;;;;;;1.70;1.60;;;32.50;21.10;;;;;;4964747;29;20454;-76
2022/03/26 15:31:22;;;;;;;1.50;1.40;;;31.40;21.20;;;;;;4965094;29;20446;-75
2022/03/26 15:33:50;;;;;;;1.50;1.40;;;29.90;22.70;;;;;;4961506;29;20498;-74
2022/03/26 15:36:17;;;;;;;1.70;1.60;;;28.50;23.50;;;;;;4960517;29;20482;-74
2022/03/26 15:38:44;;;;;;;1.67;1.57;;;27.20;24.00;;;;;;4958961;29;20462;-74
2022/03/26 15:41:12;;;;;;;1.90;1.80;;;26.20;25.50;;;;;;4958475;28;20943;-73
2022/03/26 15:43:39;;;;;;;1.60;1.50;;;24.90;24.60;;;;;;4958712;29;20896;-73
2022/03/26 15:46:05;;;;;;;1.67;1.57;;;24.10;25.00;;;;;;4958607;29;20466;-73
2022/03/26 15:48:32;;;;;;;1.80;1.70;;;23.00;26.60;;;;;;4958654;29;20451;-72
2022/03/26 15:50:59;;;;;;;1.67;1.57;;;22.50;27.20;;;;;;4958249;29;20946;-73
2022/03/26 15:53:25;;;;;;;1.47;1.37;;;22.00;28.10;;;;;;4958498;29;20450;-73
2022/03/26 15:55:52;;;;;;;1.50;1.40;;;21.70;28.80;;;;;;4958449;29;20521;-73
2022/03/26 15:58:20;;;;;;;2.00;1.90;;;21.30;29.00;;;;;;4958377;29;20450;-73
2022/03/26 16:00:47;;;;;;;1.87;1.77;;;21.30;30.00;;;;;;4958343;29;20501;-72
2022/03/26 16:03:14;;;;;;;2.20;2.00;;;21.10;30.30;;;;;;4957875;29;21020;-73
2022/03/26 16:05:41;;;;;;;1.70;1.60;;;21.00;29.80;;;;;;4958136;29;20483;-73
2022/03/26 16:08:08;;;;;;;1.70;1.60;;;21.00;29.70;;;;;;4958184;29;20587;-73
2022/03/26 16:10:34;;;;;;;2.67;1.90;;;21.20;30.40;;;;;;4957819;29;20879;-73
2022/03/26 16:13:01;;;;;;;1.90;1.80;;;21.10;30.10;;;;;;4958080;29;20450;-73
2022/03/26 16:15:29;;;;;;;1.80;1.70;;;20.80;29.80;;;;;;5053954;23;20458;-74
2022/03/26 16:17:56;;;;;;;1.63;1.53;;;20.80;30.00;;;;;;4958362;29;20466;-76
2022/03/26 16:20:22;;;;;;;1.70;1.60;;;20.80;30.50;;;;;;4958048;29;20486;-75
2022/03/26 16:22:49;;;;;;;1.50;1.40;;;20.70;30.90;;;;;;4957870;29;20482;-76
2022/03/26 16:25:16;;;;;;;1.70;1.60;;;20.50;30.70;;;;;;4957674;29;20506;-77
2022/03/26 16:27:42;;;;;;;1.33;1.23;;;20.50;30.90;;;;;;4957904;28;20509;-76
2022/03/26 16:30:11;;;;;;;1.70;1.60;;;20.60;31.40;;;;;;4957534;29;20879;-76
2022/03/26 16:32:39;;;;;;;1.70;1.60;;;20.60;31.20;;;;;;4957743;29;20447;-76
2022/03/26 16:35:07;;;;;;;1.60;1.50;;;20.60;32.10;;;;;;4957693;29;20497;-75
2022/03/26 16:37:35;;;;;;;1.53;1.43;;;20.30;31.70;;;;;;4957667;29;20458;-76
2022/03/26 16:40:02;;;;;;;1.70;1.60;;;20.30;31.80;;;;;;4957558;29;20473;-76
2022/03/26 16:42:28;;;;;;;2.17;1.80;;;20.40;32.10;;;;;;4957608;29;20461;-76
2022/03/26 16:44:55;;;;;;;1.60;1.50;;;20.40;32.00;;;;;;4957507;29;20447;-75
2022/03/26 16:47:22;;;;;;;1.80;1.70;;;20.40;32.40;;;;;;4960795;29;21049;-76
2022/03/26 16:49:50;;;;;;;1.93;1.83;;;20.20;32.60;;;;;;4960063;29;20451;-76
2022/03/26 16:52:17;;;;;;;2.43;1.57;;;20.00;32.60;;;;;;4957514;29;20450;-76
2022/03/26 16:54:44;;;;;;;1.60;1.50;;;19.80;32.50;;;;;;4957677;29;20448;-76
2022/03/26 16:57:11;;;;;;;1.60;1.50;;;19.70;32.70;;;;;;4957918;29;20475;-77
2022/03/26 16:59:38;;;;;;;1.67;1.57;;;19.60;32.40;;;;;;4957571;29;20455;-76
2022/03/26 17:02:05;;;;;;;1.90;1.80;;;19.70;32.70;;;;;;4957127;29;20815;-74
2022/03/26 17:04:32;;;;;;;1.80;1.70;;;19.70;32.60;;;;;;4957041;29;20910;-75
2022/03/26 17:07:00;;;;;;;1.70;1.53;;;19.60;32.70;;;;;;4957018;29;20887;-74